Weather observations for the past three days for
Sedona Airport
Imperial (Metric)
Date Time (mst) Wind (mph) Vis. (mi.) Weather Sky Cond. Temperature (ºF) Relative Humidity Wind Chill (°F) Heat Index (°F) Pressure Precipitation (in)
Air Dwpt 6 hour altimeter (in) sea level (mb) 1 hr 3 hr 6 hr
Max. Min.
04 20:15 S 16 G 24 10.00 Fair CLR 59 26.6 29% 29.95 0.0
04 19:55 S 15 G 24 10.00 Fair CLR 59 26.6 29% 29.94 0.0
04 19:35 S 16 G 23 10.00 Fair CLR 60.8 24.8 25% 29.94 0.0
04 19:15 S 15 G 26 10.00 Fair CLR 60.8 26.6 27% 29.94 0.0
04 18:55 S 13 G 25 10.00 Fair CLR 60.8 24.8 25% 29.94 0.0
04 18:35 S 17 G 25 10.00 Fair CLR 62.6 24.8 24% 29.93 0.0
04 18:15 S 14 G 31 10.00 Fair CLR 62.6 23 22% 29.94 0.0
04 17:55 S 22 G 31 10.00 Fair and Breezy CLR 62.6 23 22% 29.94 0.0
04 17:35 S 15 G 31 10.00 Fair CLR 64.4 23 21% 29.94 0.0
04 17:15 S 20 G 31 10.00 Fair CLR 64.4 23 21% 29.94 0.0
04 16:55 S 17 G 26 10.00 Fair CLR 64.4 24.8 22% 29.95 0.0
04 16:35 S 15 G 26 10.00 Fair CLR 64.4 24.8 22% 29.94 0.0
04 16:15 S 17 G 28 10.00 Fair CLR 66.2 26.6 22% 29.95 0.0
04 15:55 S 17 G 30 10.00 Fair CLR 66.2 28.4 24% 29.95 0.0
04 15:35 SW 10 G 24 10.00 Fair CLR 68 28.4 23% 29.95 0.0
04 15:15 SW 13 G 28 10.00 Fair CLR 66.2 28.4 24% 29.95 0.0
04 14:55 S 17 G 24 10.00 Fair CLR 68 33.8 28% 29.96 0.0
04 14:35 S 13 G 23 10.00 A Few Clouds FEW065 68 33.8 28% 29.96 0.0
04 14:15 SE 13 G 32 10.00 A Few Clouds FEW065 68 33.8 28% 29.96 0.0
04 13:55 SE 18 G 26 10.00 Fair CLR 68 33.8 28% 29.96 0.0
04 13:35 SE 14 G 23 10.00 Fair CLR 69.8 32 25% 29.97 0.0
04 13:15 SE 16 G 28 10.00 Fair CLR 68 30.2 24% 29.98 0.0
04 12:55 S 15 G 25 10.00 Fair CLR 68 32 26% 29.98 0.0
04 12:35 S 16 G 32 10.00 Fair CLR 69.8 33.8 27% 29.98 0.0
04 12:15 S 17 G 24 10.00 Fair CLR 68 35.6 30% 29.98 0.0
04 11:55 SE 13 G 20 10.00 Fair CLR 68 37.4 33% 29.98 0.0
04 11:35 SE 14 G 25 10.00 Fair CLR 66.2 37.4 35% 29.98 0.0
04 11:15 SE 16 G 28 10.00 Fair CLR 66.2 33.8 30% 29.98 0.0
04 10:55 S 18 G 25 10.00 Fair CLR 66.2 37.4 35% 30 0.0
04 10:35 SE 21 G 31 10.00 A Few Clouds and Breezy FEW044 66.2 39.2 37% 29.98 0.0
04 10:15 SE 21 G 29 10.00 A Few Clouds and Breezy FEW044 66.2 41 40% 29.98 0.0
04 09:55 S 14 G 22 10.00 A Few Clouds FEW045 64.4 41 43% 29.99 0.0
04 09:35 S 13 G 23 10.00 Fair CLR 64.4 41 43% 29.99 0.0
04 09:15 S 12 G 28 10.00 Fair CLR 62.6 41 45% 30 0.0
04 08:55 SE 18 G 25 10.00 Partly Cloudy SCT042 SCT049 62.6 41 45% 29.99 0.0
04 08:35 S 8 G 17 10.00 Partly Cloudy SCT041 SCT048 60.8 41 48% 30 0.0
04 08:15 SE 12 G 17 10.00 Fair CLR 60.8 41 48% 29.99 0.0
04 07:55 S 8 G 15 10.00 Fair CLR 60.8 39.2 45% 30 0.0
04 07:35 S 9 10.00 Fair CLR 59 39.2 48% 29.99 0.0
04 07:15 S 9 10.00 Fair CLR 59 37.4 45% 29.99 0.0
04 06:55 S 10 10.00 Fair CLR 59 37.4 45% 29.98 0.0
04 06:35 S 8 10.00 Fair CLR 57.2 35.6 44% 29.98 0.0
04 06:15 SE 8 10.00 Fair CLR 57.2 37.4 48% 29.97 0.0
04 05:55 Vrbl 5 10.00 Fair CLR 57.2 37.4 48% 29.97 0.0
04 05:35 S 8 G 15 10.00 Fair CLR 57.2 37.4 48% 29.96 0.0
04 05:15 SE 7 10.00 Fair CLR 57.2 35.6 44% 29.96 0.0
04 04:55 S 9 10.00 Fair CLR 57.2 37.4 48% 29.96 0.0
04 04:35 S 10 10.00 Fair CLR 57.2 37.4 48% 29.97 0.0
04 04:15 S 9 G 15 10.00 Fair CLR 59 37.4 45% 29.99 0.0
04 03:55 S 7 10.00 Fair CLR 59 37.4 45% 29.99 0.0
04 03:35 S 7 G 13 10.00 Fair CLR 59 35.6 42% 29.99 0.0
04 03:15 S 8 G 17 10.00 Fair CLR 59 35.6 42% 29.99 0.0
04 02:55 S 10 10.00 Fair CLR 59 35.6 42% 29.99 0.0
04 02:35 Vrbl 7 G 18 10.00 Fair CLR 60.8 35.6 39% 29.99 0.0
04 02:15 S 8 10.00 Fair CLR 60.8 33.8 36% 29.98 0.0
04 01:55 S 9 10.00 Fair CLR 60.8 33.8 36% 29.98 0.0
04 01:35 SW 13 G 21 10.00 Fair CLR 60.8 33.8 36% 29.98 0.0
04 01:15 S 14 10.00 Fair CLR 60.8 32 34% 29.97 0.0
04 00:55 S 10 G 22 10.00 Fair CLR 62.6 32 32% 29.98 0.0
04 00:35 S 13 G 24 10.00 Fair CLR 62.6 30.2 30% 29.97 0.0
04 00:15 S 15 G 26 10.00 Fair CLR 62.6 28.4 27% 29.97 0.0
03 23:55 S 18 10.00 Fair CLR 64.4 26.6 24% 29.96 0.0
03 23:15 SE 13 G 20 10.00 Fair CLR 64.4 24.8 22% 29.96 0.0
03 22:55 S 14 G 23 10.00 Fair CLR 66.2 26.6 22% 29.96 0.0
03 22:35 S 10 G 26 10.00 A Few Clouds FEW055 66.2 26.6 22% 29.96 0.0
03 22:15 S 12 G 21 10.00 Partly Cloudy SCT055 SCT070 66.2 26.6 22% 29.97 0.0
03 21:55 SE 13 G 20 10.00 Fair CLR 66.2 24.8 21% 29.96 0.0
03 21:35 S 10 G 18 10.00 Fair CLR 68 24.8 20% 29.96 0.0
03 21:15 S 8 10.00 Fair CLR 68 24.8 20% 29.96 0.0
03 20:55 SW 8 G 16 10.00 Fair CLR 68 24.8 20% 29.94 0.0
03 20:35 Vrbl 8 G 20 10.00 Fair CLR 69.8 24.8 18% 29.93 0.0
03 20:15 SW 10 10.00 Fair CLR 69.8 24.8 18% 29.92 0.0
03 19:55 SW 13 G 22 10.00 Fair CLR 71.6 26.6 19% 29.92 0.0
03 19:35 SW 9 G 18 10.00 Fair CLR 71.6 26.6 19% 29.91 0.0
03 19:15 SW 14 G 23 10.00 Fair CLR 71.6 26.6 19% 29.9 0.0
03 18:55 SW 13 G 25 10.00 A Few Clouds FEW100 73.4 26.6 17% 29.9 0.0
03 18:35 S 15 G 28 10.00 Partly Cloudy SCT100 73.4 26.6 17% 29.9 0.0
03 18:15 SW 16 G 25 10.00 A Few Clouds FEW100 73.4 28.4 19% 29.9 0.0
03 17:55 S 18 G 29 10.00 Partly Cloudy SCT100 75.2 30.2 19% 76 29.91 0.0
03 17:35 SW 13 G 26 10.00 Partly Cloudy SCT100 75.2 30.2 19% 76 29.9 0.0
03 17:15 S 16 G 36 10.00 A Few Clouds FEW100 77 28.4 17% 77 29.9 0.0
03 16:55 S 20 G 30 10.00 A Few Clouds FEW110 77 28.4 17% 77 29.9 0.0
03 16:35 S 15 G 25 10.00 Partly Cloudy SCT110 78.8 24.8 13% 77 29.91 0.0
03 16:15 S 15 G 22 10.00 A Few Clouds FEW100 75.2 26.6 16% 76 29.91 0.0
03 15:55 S 14 G 26 10.00 Partly Cloudy SCT100 SCT120 78.8 30.2 17% 78 29.92 0.0
03 15:35 S 21 G 29 10.00 Partly Cloudy and Breezy SCT100 SCT120 77 28.4 17% 77 29.93 0.0
03 15:15 S 13 G 29 10.00 Partly Cloudy SCT095 80.6 28.4 15% 79 29.94 0.0
03 14:55 S 18 G 26 10.00 Partly Cloudy SCT095 78.8 30.2 17% 78 29.95 0.0
03 14:35 SE 21 G 26 10.00 Partly Cloudy and Breezy SCT090 80.6 32 17% 79 29.95 0.0
03 14:15 SE 16 G 26 10.00 Partly Cloudy SCT090 SCT110 78.8 33.8 20% 78 29.96 0.0
03 13:55 SW 18 G 30 10.00 Partly Cloudy SCT090 78.8 32 18% 78 29.98 0.0
03 13:35 SW 17 G 26 10.00 Partly Cloudy SCT085 SCT110 82.4 32 16% 80 29.98 0.0
03 13:15 SE 16 G 29 10.00 Partly Cloudy SCT080 SCT100 78.8 35.6 21% 78 29.98 0.0
03 12:55 SE 13 G 23 10.00 A Few Clouds FEW090 FEW120 80.6 35.6 20% 79 30 0.0
03 12:35 SE 20 G 28 10.00 A Few Clouds FEW080 FEW120 78.8 35.6 21% 78 30 0.0
03 12:15 S 9 G 22 10.00 Fair CLR 80.6 37.4 21% 79 30.02 0.0
03 11:55 S 15 G 25 10.00 A Few Clouds FEW095 80.6 39.2 23% 79 30.03 0.0
03 11:35 S 9 G 20 10.00 Partly Cloudy SCT100 78.8 39.2 24% 78 30.04 0.0
03 11:15 S 10 G 16 10.00 Partly Cloudy SCT095 80.6 39.2 23% 79 30.04 0.0
03 10:55 S 12 G 18 10.00 A Few Clouds FEW100 77 37.4 24% 77 30.05 0.0
03 10:35 S 12 G 18 10.00 A Few Clouds FEW100 78.8 39.2 24% 78 30.06 0.0
03 10:15 Vrbl 6 G 16 10.00 A Few Clouds FEW100 75.2 37.4 25% 77 30.07 0.0
03 09:55 Vrbl 5 10.00 Fair CLR 71.6 37.4 29% 30.07 0.0
03 09:35 S 7 G 14 10.00 Fair CLR 71.6 37.4 29% 30.08 0.0
03 09:15 S 8 10.00 Fair CLR 73.4 37.4 27% 30.08 0.0
03 08:55 Vrbl 5 10.00 Fair CLR 71.6 37.4 29% 30.08 0.0
03 08:35 Vrbl 5 10.00 Fair CLR 68 35.6 30% 30.08 0.0
03 08:15 Calm 10.00 Fair CLR 68 35.6 30% 30.09 0.0
03 07:55 Vrbl 5 10.00 Fair CLR 66.2 33.8 30% 30.09 0.0
03 07:35 Calm 10.00 Fair CLR 64.4 33.8 32% 30.08 0.0
03 07:15 Calm 10.00 Fair CLR 62.6 33.8 34% 30.08 0.0
03 06:55 Calm 10.00 Fair CLR 60.8 32 34% 30.08 0.0
03 06:35 NE 7 10.00 Fair CLR 60.8 32 34% 30.07 0.0
03 06:15 NE 9 9.00 Fair CLR 59 32 36% 30.06 0.0
03 05:55 NE 10 10.00 Fair CLR 59 32 36% 30.06 0.0
03 05:35 NE 13 10.00 Fair CLR 59 30.2 34% 30.06 0.0
03 05:15 NE 12 10.00 Fair CLR 59 30.2 34% 30.06 0.0
03 04:55 NE 9 10.00 Fair CLR 59 30.2 34% 30.06 0.0
03 04:35 NE 9 10.00 Fair CLR 59 28.4 31% 30.06 0.0
03 04:15 Vrbl 7 10.00 Fair CLR 59 28.4 31% 30.06 0.0
03 03:55 Vrbl 3 10.00 Fair CLR 60.8 28.4 29% 30.07 0.0
03 03:35 Vrbl 7 10.00 Fair CLR 60.8 28.4 29% 30.06 0.0
03 03:15 NE 6 10.00 A Few Clouds FEW095 60.8 28.4 29% 30.06 0.0
03 02:55 NE 7 10.00 Overcast FEW049 SCT075 OVC090 60.8 28.4 29% 30.06 0.0
03 02:35 NE 8 10.00 Overcast OVC070 62.6 28.4 27% 30.06 0.0
03 02:15 NE 8 G 15 10.00 Overcast OVC065 60.8 28.4 29% 30.06 0.0
03 01:55 NE 10 10.00 Mostly Cloudy BKN060 BKN120 60.8 28.4 29% 30.06 0.0
03 01:35 NE 12 10.00 A Few Clouds FEW120 62.6 28.4 27% 30.07 0.0
03 01:15 NE 14 10.00 A Few Clouds FEW120 60.8 28.4 29% 30.07 0.0
03 00:55 NE 13 10.00 Fair CLR 62.6 28.4 27% 30.07 0.0
03 00:35 NE 14 10.00 Fair CLR 62.6 28.4 27% 30.07 0.0
03 00:15 NE 9 10.00 Fair CLR 62.6 28.4 27% 30.08 0.0
02 23:55 NE 7 10.00 Fair CLR 64.4 28.4 26% 30.08 0.0
02 23:35 N 6 10.00 Fair CLR 64.4 28.4 26% 30.08 0.0
02 23:15 Calm 10.00 Fair CLR 66.2 26.6 22% 30.08 0.0
02 22:55 Vrbl 3 10.00 Fair CLR 66.2 26.6 22% 30.08 0.0
02 22:35 SE 5 10.00 Fair CLR 66.2 26.6 22% 30.08 0.0
02 22:15 SE 7 10.00 Partly Cloudy SCT110 66.2 26.6 22% 30.07 0.0
02 21:55 SE 8 10.00 Overcast OVC110 68 26.6 21% 30.07 0.0
02 21:35 Vrbl 7 G 13 10.00 Overcast OVC110 68 26.6 21% 30.07 0.0
02 21:15 S 10 10.00 Overcast OVC110 68 26.6 21% 30.06 0.0
02 20:55 S 9 10.00 Partly Cloudy SCT110 68 24.8 20% 30.04 0.0
02 20:35 S 7 10.00 Partly Cloudy FEW080 SCT110 69.8 24.8 18% 30.04 0.0
02 20:15 Vrbl 7 G 16 10.00 Overcast FEW070 SCT085 OVC110 69.8 24.8 18% 30.03 0.0
02 19:55 S 12 10.00 Overcast FEW075 OVC110 71.6 23 16% 30.02 0.0
02 19:35 S 9 G 16 10.00 Mostly Cloudy BKN110 71.6 23 16% 30.01 0.0
02 19:15 S 8 10.00 Mostly Cloudy BKN120 71.6 23 16% 30.01 0.0
02 18:55 S 5 G 12 10.00 Mostly Cloudy BKN110 73.4 23 15% 30.01 0.0
02 18:35 S 8 10.00 Mostly Cloudy BKN110 73.4 24.8 16% 30.01 0.0
02 18:15 Vrbl 5 G 13 10.00 Partly Cloudy SCT110 75.2 23 14% 75 30.01 0.0
02 17:55 Vrbl 6 G 14 10.00 A Few Clouds FEW120 75.2 23 14% 75 30.01 0.0
02 17:35 S 9 G 18 10.00 A Few Clouds FEW120 77 24.8 14% 76 30.01 0.0
02 17:15 Vrbl 5 10.00 A Few Clouds FEW110 77 24.8 14% 76 30.01 0.0
02 16:55 Vrbl 5 G 14 10.00 A Few Clouds FEW110 77 24.8 14% 76 30.01 0.0
02 16:35 Vrbl 7 10.00 A Few Clouds FEW110 77 24.8 14% 76 30.01 0.0
02 16:15 W 5 G 15 10.00 A Few Clouds FEW120 75.2 24.8 15% 75 30.01 0.0
02 15:55 Vrbl 5 G 14 10.00 A Few Clouds FEW120 77 24.8 14% 76 30.02 0.0
02 15:35 S 8 G 14 10.00 A Few Clouds FEW110 78.8 24.8 13% 77 30.02 0.0
02 15:15 SE 10 G 18 10.00 A Few Clouds FEW110 82.4 24.8 12% 80 30.02 0.0
02 14:55 Vrbl 5 G 12 10.00 Partly Cloudy SCT100 80.6 24.8 13% 79 30.04 0.0
02 14:35 Vrbl 6 G 14 10.00 Partly Cloudy SCT100 77 24.8 14% 76 30.04 0.0
02 14:15 Vrbl 7 G 16 10.00 Fair CLR 80.6 24.8 13% 79 30.06 0.0
02 13:55 S 8 G 16 10.00 Fair CLR 78.8 24.8 13% 77 30.07 0.0
02 13:35 Vrbl 3 G 14 10.00 Fair CLR 77 23 13% 76 30.07 0.0
02 13:15 Vrbl 6 G 14 10.00 Fair CLR 78.8 24.8 13% 77 30.08 0.0
02 12:55 Vrbl 7 G 14 10.00 A Few Clouds FEW100 77 23 13% 76 30.08 0.0
02 12:35 W 9 10.00 Fair CLR 75.2 23 14% 75 30.09 0.0
02 12:15 Vrbl 7 G 15 10.00 Fair CLR 75.2 23 14% 75 30.1 0.0
02 11:55 SW 10 10.00 Fair CLR 73.4 24.8 16% 30.11 0.0
02 11:35 Vrbl 7 G 15 10.00 Fair CLR 73.4 24.8 16% 30.12 0.0
02 11:15 Vrbl 7 8.00 Fair CLR 77 23 13% 76 30.12 0.0
02 10:55 S 12 G 17 10.00 Fair CLR 77 23 13% 76 30.13 0.0
02 10:35 Vrbl 6 G 16 10.00 Fair CLR 75.2 23 14% 75 30.13 0.0
02 10:15 Vrbl 3 G 15 10.00 Fair CLR 71.6 24.8 17% 30.13 0.0
02 09:55 Vrbl 3 10.00 Fair CLR 69.8 24.8 18% 30.13 0.0
02 09:35 Calm 10.00 Fair CLR 71.6 26.6 19% 30.13 0.0
02 09:15 Calm 10.00 Fair CLR 69.8 26.6 20% 30.13 0.0
02 08:55 Calm 10.00 Fair CLR 69.8 24.8 18% 30.13 0.0
02 08:35 Calm 10.00 Fair CLR 64.4 24.8 22% 30.13 0.0
02 08:15 Calm 10.00 Fair CLR 64.4 23 21% 30.13 0.0
02 07:55 Vrbl 5 10.00 Fair CLR 64.4 24.8 22% 30.13 0.0
02 07:35 Vrbl 6 10.00 Fair CLR 64.4 24.8 22% 30.12 0.0
02 07:15 Vrbl 3 G 12 10.00 Fair CLR 60.8 23 23% 30.12 0.0
02 06:55 Vrbl 6 G 13 10.00 Fair CLR 59 23 25% 30.11 0.0
02 06:35 NE 9 G 18 10.00 Fair CLR 57.2 23 27% 30.1 0.0
02 06:15 NE 13 10.00 Fair CLR 57.2 23 27% 30.1 0.0
02 05:55 NE 12 10.00 Fair CLR 55.4 23 28% 30.09 0.0
02 05:35 NE 9 10.00 Fair CLR 55.4 23 28% 30.09 0.0
02 05:15 NE 10 G 16 10.00 Fair CLR 55.4 21.2 26% 30.08 0.0
02 04:55 NE 12 10.00 Fair CLR 55.4 19.4 24% 30.08 0.0
02 04:35 NE 9 G 16 10.00 Fair CLR 57.2 19.4 23% 30.08 0.0
02 04:15 NE 14 G 21 10.00 Fair CLR 55.4 19.4 24% 30.08 0.0
02 03:55 NE 13 G 20 10.00 Fair CLR 55.4 17.6 23% 30.08 0.0
02 03:35 NE 14 G 22 10.00 Fair CLR 57.2 19.4 23% 30.07 0.0
02 03:15 NE 15 G 23 10.00 Fair CLR 57.2 21.2 25% 30.07 0.0
02 02:55 NE 14 G 20 10.00 Fair CLR 57.2 21.2 25% 30.07 0.0
02 02:35 NE 15 10.00 A Few Clouds FEW110 59 21.2 23% 30.07 0.0
02 02:15 NE 12 G 18 10.00 Partly Cloudy SCT110 59 21.2 23% 30.07 0.0
02 01:55 NE 13 10.00 Partly Cloudy SCT110 59 21.2 23% 30.07 0.0
02 01:35 NE 13 10.00 Mostly Cloudy BKN110 59 21.2 23% 30.08 0.0
02 01:15 NE 12 G 18 10.00 Mostly Cloudy BKN110 59 21.2 23% 30.08 0.0
02 00:55 NE 13 G 21 10.00 Overcast OVC110 59 21.2 23% 30.08 0.0
02 00:35 NE 13 10.00 Overcast OVC110 60.8 21.2 22% 30.08 0.0
02 00:15 E 10 10.00 Overcast OVC110 60.8 21.2 22% 30.08 0.0
01 23:55 NE 12 10.00 Overcast OVC110 60.8 21.2 22% 30.08 0.0
01 23:35 NE 10 G 18 10.00 Overcast OVC110 62.6 21.2 20% 30.08 0.0
01 23:15 NE 12 10.00 Overcast OVC110 62.6 21.2 20% 30.07 0.0
01 22:55 NE 10 G 16 10.00 Overcast FEW090 OVC110 62.6 21.2 20% 30.06 0.0
01 22:35 NE 8 G 17 10.00 Overcast FEW080 OVC110 62.6 21.2 20% 30.06 0.0
01 22:15 E 12 G 22 10.00 Overcast OVC110 62.6 21.2 20% 30.06 0.0
01 21:55 E 13 G 22 10.00 Overcast OVC100 62.6 23 22% 30.05 0.0
01 21:35 NE 15 G 24 10.00 Overcast FEW075 OVC100 64.4 23 21% 30.05 0.0
01 21:15 E 10 G 25 10.00 Overcast SCT075 OVC110 64.4 23 21% 30.04 0.0
01 20:55 NE 16 G 26 10.00 Overcast FEW070 FEW080 OVC110 64.4 23 21% 30.02 0.0
01 20:35 NE 12 G 26 10.00 Overcast FEW080 OVC110 64.4 23 21% 30.02 0.0
Date Time (mst) Wind (mph) Vis. (mi.) Weather Sky Cond. Air Dwpt Max. Min. Relative Humidity Wind Chill (°F) Heat Index (°F) altimeter (in) sea level (mb) 1 hr 3 hr 6 hr
6 hour
Temperature (ºF) Pressure Precipitation (in)